sensor_id;sensor_type;location;lat;lon;timestamp;P1;durP1;ratioP1;P2;durP2;ratioP2
34900;SDS011;21112;51.976;5.660;2022-12-05T00:00:46;23.40;;;9.50;;
34900;SDS011;21112;51.976;5.660;2022-12-05T00:03:13;25.40;;;9.93;;
34900;SDS011;21112;51.976;5.660;2022-12-05T00:05:40;26.98;;;9.95;;
34900;SDS011;21112;51.976;5.660;2022-12-05T00:08:08;23.42;;;9.40;;
34900;SDS011;21112;51.976;5.660;2022-12-05T00:10:34;26.92;;;9.25;;
34900;SDS011;21112;51.976;5.660;2022-12-05T00:13:01;23.80;;;9.88;;
34900;SDS011;21112;51.976;5.660;2022-12-05T00:15:27;25.52;;;9.45;;
34900;SDS011;21112;51.976;5.660;2022-12-05T00:17:54;23.50;;;9.85;;
34900;SDS011;21112;51.976;5.660;2022-12-05T00:20:20;24.48;;;9.40;;
34900;SDS011;21112;51.976;5.660;2022-12-05T00:22:47;25.35;;;9.80;;
34900;SDS011;21112;51.976;5.660;2022-12-05T00:25:15;25.45;;;10.57;;
34900;SDS011;21112;51.976;5.660;2022-12-05T00:27:42;23.38;;;10.32;;
34900;SDS011;21112;51.976;5.660;2022-12-05T00:30:09;24.85;;;10.75;;
34900;SDS011;21112;51.976;5.660;2022-12-05T00:32:35;27.95;;;10.07;;
34900;SDS011;21112;51.976;5.660;2022-12-05T00:35:02;29.35;;;9.75;;
34900;SDS011;21112;51.976;5.660;2022-12-05T00:37:28;22.85;;;9.80;;
34900;SDS011;21112;51.976;5.660;2022-12-05T00:39:55;28.67;;;10.07;;
34900;SDS011;21112;51.976;5.660;2022-12-05T00:42:23;25.50;;;10.43;;
34900;SDS011;21112;51.976;5.660;2022-12-05T00:44:50;26.63;;;10.57;;
34900;SDS011;21112;51.976;5.660;2022-12-05T00:47:16;25.98;;;10.70;;
34900;SDS011;21112;51.976;5.660;2022-12-05T00:49:43;21.90;;;9.50;;
34900;SDS011;21112;51.976;5.660;2022-12-05T00:52:09;23.13;;;9.48;;
34900;SDS011;21112;51.976;5.660;2022-12-05T00:54:36;24.23;;;9.10;;
34900;SDS011;21112;51.976;5.660;2022-12-05T00:57:03;22.90;;;9.13;;
34900;SDS011;21112;51.976;5.660;2022-12-05T00:59:31;25.27;;;10.40;;
34900;SDS011;21112;51.976;5.660;2022-12-05T01:01:58;26.63;;;9.65;;
34900;SDS011;21112;51.976;5.660;2022-12-05T01:04:24;24.90;;;10.18;;
34900;SDS011;21112;51.976;5.660;2022-12-05T01:06:52;27.40;;;10.02;;
34900;SDS011;21112;51.976;5.660;2022-12-05T01:09:22;27.58;;;11.10;;
34900;SDS011;21112;51.976;5.660;2022-12-05T01:11:49;24.92;;;9.35;;
34900;SDS011;21112;51.976;5.660;2022-12-05T01:14:17;28.60;;;10.32;;
34900;SDS011;21112;51.976;5.660;2022-12-05T01:16:46;26.05;;;10.68;;
34900;SDS011;21112;51.976;5.660;2022-12-05T01:19:14;23.95;;;9.98;;
34900;SDS011;21112;51.976;5.660;2022-12-05T01:21:41;24.77;;;10.37;;
34900;SDS011;21112;51.976;5.660;2022-12-05T01:24:08;25.27;;;9.95;;
34900;SDS011;21112;51.976;5.660;2022-12-05T01:26:34;26.98;;;10.75;;
34900;SDS011;21112;51.976;5.660;2022-12-05T01:29:01;25.05;;;9.95;;
34900;SDS011;21112;51.976;5.660;2022-12-05T01:31:30;25.02;;;9.13;;
34900;SDS011;21112;51.976;5.660;2022-12-05T01:33:58;27.23;;;9.98;;
34900;SDS011;21112;51.976;5.660;2022-12-05T01:36:26;27.00;;;10.40;;
34900;SDS011;21112;51.976;5.660;2022-12-05T01:38:53;24.65;;;9.45;;
34900;SDS011;21112;51.976;5.660;2022-12-05T01:41:21;25.65;;;9.82;;
34900;SDS011;21112;51.976;5.660;2022-12-05T01:43:58;28.02;;;10.43;;
34900;SDS011;21112;51.976;5.660;2022-12-05T01:46:28;27.70;;;9.95;;
34900;SDS011;21112;51.976;5.660;2022-12-05T01:48:56;24.02;;;9.43;;
34900;SDS011;21112;51.976;5.660;2022-12-05T01:51:25;27.70;;;10.57;;
34900;SDS011;21112;51.976;5.660;2022-12-05T01:53:52;26.52;;;9.60;;
34900;SDS011;21112;51.976;5.660;2022-12-05T01:56:18;27.58;;;9.38;;
34900;SDS011;21112;51.976;5.660;2022-12-05T01:58:45;27.40;;;10.30;;
34900;SDS011;21112;51.976;5.660;2022-12-05T02:01:12;26.25;;;9.65;;
34900;SDS011;21112;51.976;5.660;2022-12-05T02:03:41;23.65;;;9.43;;
34900;SDS011;21112;51.976;5.660;2022-12-05T02:06:07;25.52;;;10.30;;
34900;SDS011;21112;51.976;5.660;2022-12-05T02:08:35;26.55;;;10.10;;
34900;SDS011;21112;51.976;5.660;2022-12-05T02:11:02;29.20;;;10.57;;
34900;SDS011;21112;51.976;5.660;2022-12-05T02:13:34;22.60;;;9.63;;
34900;SDS011;21112;51.976;5.660;2022-12-05T02:16:03;23.40;;;9.95;;
34900;SDS011;21112;51.976;5.660;2022-12-05T02:21:02;19.02;;;8.30;;
34900;SDS011;21112;51.976;5.660;2022-12-05T02:26:30;24.60;;;10.02;;
34900;SDS011;21112;51.976;5.660;2022-12-05T02:29:20;23.45;;;9.63;;
34900;SDS011;21112;51.976;5.660;2022-12-05T02:31:54;21.55;;;9.15;;
34900;SDS011;21112;51.976;5.660;2022-12-05T02:34:23;24.58;;;9.75;;
34900;SDS011;21112;51.976;5.660;2022-12-05T02:36:53;23.88;;;9.43;;
34900;SDS011;21112;51.976;5.660;2022-12-05T02:39:23;25.92;;;9.88;;
34900;SDS011;21112;51.976;5.660;2022-12-05T02:41:53;25.20;;;9.43;;
34900;SDS011;21112;51.976;5.660;2022-12-05T02:46:48;20.63;;;7.88;;
34900;SDS011;21112;51.976;5.660;2022-12-05T02:49:18;26.65;;;9.30;;
34900;SDS011;21112;51.976;5.660;2022-12-05T02:51:50;22.35;;;9.43;;
34900;SDS011;21112;51.976;5.660;2022-12-05T02:54:18;25.77;;;9.55;;
34900;SDS011;21112;51.976;5.660;2022-12-05T02:56:46;22.95;;;9.30;;
34900;SDS011;21112;51.976;5.660;2022-12-05T02:59:16;22.90;;;9.50;;
34900;SDS011;21112;51.976;5.660;2022-12-05T03:01:43;20.92;;;9.02;;
34900;SDS011;21112;51.976;5.660;2022-12-05T03:04:10;20.48;;;8.68;;
34900;SDS011;21112;51.976;5.660;2022-12-05T03:06:39;21.95;;;8.65;;
34900;SDS011;21112;51.976;5.660;2022-12-05T03:09:08;24.45;;;9.48;;
34900;SDS011;21112;51.976;5.660;2022-12-05T03:11:36;25.35;;;9.07;;
34900;SDS011;21112;51.976;5.660;2022-12-05T03:14:04;21.98;;;8.35;;
34900;SDS011;21112;51.976;5.660;2022-12-05T03:16:32;24.70;;;8.98;;
34900;SDS011;21112;51.976;5.660;2022-12-05T03:19:02;25.73;;;9.57;;
34900;SDS011;21112;51.976;5.660;2022-12-05T03:21:32;24.83;;;9.25;;
34900;SDS011;21112;51.976;5.660;2022-12-05T03:24:02;24.23;;;9.15;;
34900;SDS011;21112;51.976;5.660;2022-12-05T03:26:37;24.83;;;8.68;;
34900;SDS011;21112;51.976;5.660;2022-12-05T03:29:10;26.70;;;9.20;;
34900;SDS011;21112;51.976;5.660;2022-12-05T03:31:39;22.23;;;8.60;;
34900;SDS011;21112;51.976;5.660;2022-12-05T03:34:07;25.00;;;9.02;;
34900;SDS011;21112;51.976;5.660;2022-12-05T03:36:38;24.58;;;9.15;;
34900;SDS011;21112;51.976;5.660;2022-12-05T03:39:09;26.40;;;9.65;;
34900;SDS011;21112;51.976;5.660;2022-12-05T03:41:39;21.65;;;8.75;;
34900;SDS011;21112;51.976;5.660;2022-12-05T03:44:07;21.60;;;9.30;;
34900;SDS011;21112;51.976;5.660;2022-12-05T03:46:36;20.97;;;8.27;;
34900;SDS011;21112;51.976;5.660;2022-12-05T03:49:08;23.95;;;9.18;;
34900;SDS011;21112;51.976;5.660;2022-12-05T03:51:38;21.30;;;8.18;;
34900;SDS011;21112;51.976;5.660;2022-12-05T03:54:09;21.63;;;8.23;;
34900;SDS011;21112;51.976;5.660;2022-12-05T03:56:39;22.25;;;8.60;;
34900;SDS011;21112;51.976;5.660;2022-12-05T03:59:09;20.08;;;8.10;;
34900;SDS011;21112;51.976;5.660;2022-12-05T04:01:37;22.67;;;9.52;;
34900;SDS011;21112;51.976;5.660;2022-12-05T04:04:07;19.88;;;9.02;;
34900;SDS011;21112;51.976;5.660;2022-12-05T04:06:35;23.65;;;9.65;;
34900;SDS011;21112;51.976;5.660;2022-12-05T04:09:04;20.77;;;8.02;;
34900;SDS011;21112;51.976;5.660;2022-12-05T04:11:35;21.10;;;8.63;;
34900;SDS011;21112;51.976;5.660;2022-12-05T04:14:04;21.42;;;8.70;;
34900;SDS011;21112;51.976;5.660;2022-12-05T04:19:16;20.17;;;7.25;;
34900;SDS011;21112;51.976;5.660;2022-12-05T04:21:45;18.15;;;7.82;;
34900;SDS011;21112;51.976;5.660;2022-12-05T04:24:12;22.95;;;9.05;;
34900;SDS011;21112;51.976;5.660;2022-12-05T04:27:02;22.70;;;8.00;;
34900;SDS011;21112;51.976;5.660;2022-12-05T04:29:31;21.98;;;7.40;;
34900;SDS011;21112;51.976;5.660;2022-12-05T04:31:59;18.65;;;8.20;;
34900;SDS011;21112;51.976;5.660;2022-12-05T04:34:29;21.38;;;7.88;;
34900;SDS011;21112;51.976;5.660;2022-12-05T04:36:57;19.95;;;8.88;;
34900;SDS011;21112;51.976;5.660;2022-12-05T04:41:52;16.95;;;6.50;;
34900;SDS011;21112;51.976;5.660;2022-12-05T04:44:22;19.27;;;8.45;;
34900;SDS011;21112;51.976;5.660;2022-12-05T04:46:50;21.17;;;8.27;;
34900;SDS011;21112;51.976;5.660;2022-12-05T04:49:18;20.60;;;8.10;;
34900;SDS011;21112;51.976;5.660;2022-12-05T04:54:14;19.70;;;6.50;;
34900;SDS011;21112;51.976;5.660;2022-12-05T04:56:43;19.88;;;8.05;;
34900;SDS011;21112;51.976;5.660;2022-12-05T04:59:11;18.50;;;7.55;;
34900;SDS011;21112;51.976;5.660;2022-12-05T05:01:40;20.33;;;7.90;;
34900;SDS011;21112;51.976;5.660;2022-12-05T05:04:08;22.85;;;7.85;;
34900;SDS011;21112;51.976;5.660;2022-12-05T05:06:36;17.63;;;8.00;;
34900;SDS011;21112;51.976;5.660;2022-12-05T05:09:03;20.08;;;7.60;;
34900;SDS011;21112;51.976;5.660;2022-12-05T05:11:31;19.15;;;7.82;;
34900;SDS011;21112;51.976;5.660;2022-12-05T05:13:58;18.58;;;7.72;;
34900;SDS011;21112;51.976;5.660;2022-12-05T05:16:25;19.90;;;7.72;;
34900;SDS011;21112;51.976;5.660;2022-12-05T05:18:53;16.40;;;7.50;;
34900;SDS011;21112;51.976;5.660;2022-12-05T05:21:20;17.93;;;7.47;;
34900;SDS011;21112;51.976;5.660;2022-12-05T05:23:47;15.52;;;6.30;;
34900;SDS011;21112;51.976;5.660;2022-12-05T05:26:14;19.27;;;8.27;;
34900;SDS011;21112;51.976;5.660;2022-12-05T05:28:40;21.90;;;8.05;;
34900;SDS011;21112;51.976;5.660;2022-12-05T05:31:08;16.52;;;7.15;;
34900;SDS011;21112;51.976;5.660;2022-12-05T05:33:35;17.73;;;7.97;;
34900;SDS011;21112;51.976;5.660;2022-12-05T05:36:04;20.33;;;8.52;;
34900;SDS011;21112;51.976;5.660;2022-12-05T05:38:33;19.95;;;7.95;;
34900;SDS011;21112;51.976;5.660;2022-12-05T05:41:00;20.67;;;7.97;;
34900;SDS011;21112;51.976;5.660;2022-12-05T05:43:26;17.08;;;7.40;;
34900;SDS011;21112;51.976;5.660;2022-12-05T05:45:53;19.63;;;7.47;;
34900;SDS011;21112;51.976;5.660;2022-12-05T05:48:20;19.48;;;8.07;;
34900;SDS011;21112;51.976;5.660;2022-12-05T05:50:46;18.10;;;7.63;;
34900;SDS011;21112;51.976;5.660;2022-12-05T05:53:14;18.95;;;7.85;;
34900;SDS011;21112;51.976;5.660;2022-12-05T05:55:41;19.00;;;7.33;;
34900;SDS011;21112;51.976;5.660;2022-12-05T05:58:07;17.48;;;7.13;;
34900;SDS011;21112;51.976;5.660;2022-12-05T06:00:34;17.45;;;7.40;;
34900;SDS011;21112;51.976;5.660;2022-12-05T06:03:00;18.77;;;7.68;;
34900;SDS011;21112;51.976;5.660;2022-12-05T06:05:29;16.85;;;7.38;;
34900;SDS011;21112;51.976;5.660;2022-12-05T06:07:56;18.20;;;7.82;;
34900;SDS011;21112;51.976;5.660;2022-12-05T06:10:24;18.10;;;7.28;;
34900;SDS011;21112;51.976;5.660;2022-12-05T06:12:51;16.73;;;7.20;;
34900;SDS011;21112;51.976;5.660;2022-12-05T06:15:17;18.52;;;7.13;;
34900;SDS011;21112;51.976;5.660;2022-12-05T06:17:44;17.00;;;7.53;;
34900;SDS011;21112;51.976;5.660;2022-12-05T06:20:10;17.42;;;7.10;;
34900;SDS011;21112;51.976;5.660;2022-12-05T06:22:37;19.70;;;7.93;;
34900;SDS011;21112;51.976;5.660;2022-12-05T06:25:04;16.52;;;7.30;;
34900;SDS011;21112;51.976;5.660;2022-12-05T06:27:33;16.07;;;6.83;;
34900;SDS011;21112;51.976;5.660;2022-12-05T06:29:59;22.37;;;8.23;;
34900;SDS011;21112;51.976;5.660;2022-12-05T06:32:26;19.65;;;7.90;;
34900;SDS011;21112;51.976;5.660;2022-12-05T06:34:53;19.23;;;7.25;;
34900;SDS011;21112;51.976;5.660;2022-12-05T06:37:20;18.33;;;7.03;;
34900;SDS011;21112;51.976;5.660;2022-12-05T06:39:46;15.32;;;7.15;;
34900;SDS011;21112;51.976;5.660;2022-12-05T06:42:13;14.25;;;6.38;;
34900;SDS011;21112;51.976;5.660;2022-12-05T06:44:40;16.10;;;6.95;;
34900;SDS011;21112;51.976;5.660;2022-12-05T06:47:07;17.20;;;6.97;;
34900;SDS011;21112;51.976;5.660;2022-12-05T06:49:33;16.92;;;7.03;;
34900;SDS011;21112;51.976;5.660;2022-12-05T06:52:00;15.63;;;7.25;;
34900;SDS011;21112;51.976;5.660;2022-12-05T06:54:26;14.52;;;6.47;;
34900;SDS011;21112;51.976;5.660;2022-12-05T06:56:53;17.00;;;6.63;;
34900;SDS011;21112;51.976;5.660;2022-12-05T06:59:19;15.50;;;6.72;;
34900;SDS011;21112;51.976;5.660;2022-12-05T07:01:47;17.35;;;7.10;;
34900;SDS011;21112;51.976;5.660;2022-12-05T07:04:14;17.17;;;6.78;;
34900;SDS011;21112;51.976;5.660;2022-12-05T07:06:41;16.67;;;6.87;;
34900;SDS011;21112;51.976;5.660;2022-12-05T07:09:08;17.10;;;7.13;;
34900;SDS011;21112;51.976;5.660;2022-12-05T07:11:35;16.40;;;6.78;;
34900;SDS011;21112;51.976;5.660;2022-12-05T07:14:02;14.65;;;6.88;;
34900;SDS011;21112;51.976;5.660;2022-12-05T07:16:29;15.98;;;6.88;;
34900;SDS011;21112;51.976;5.660;2022-12-05T07:18:57;14.40;;;6.20;;
34900;SDS011;21112;51.976;5.660;2022-12-05T07:21:24;16.40;;;6.80;;
34900;SDS011;21112;51.976;5.660;2022-12-05T07:23:50;15.88;;;6.80;;
34900;SDS011;21112;51.976;5.660;2022-12-05T07:26:17;14.50;;;6.88;;
34900;SDS011;21112;51.976;5.660;2022-12-05T07:28:44;14.13;;;6.57;;
34900;SDS011;21112;51.976;5.660;2022-12-05T07:31:13;16.23;;;6.65;;
34900;SDS011;21112;51.976;5.660;2022-12-05T07:33:39;14.30;;;6.32;;
34900;SDS011;21112;51.976;5.660;2022-12-05T07:36:08;14.48;;;6.28;;
34900;SDS011;21112;51.976;5.660;2022-12-05T07:38:35;16.10;;;6.90;;
34900;SDS011;21112;51.976;5.660;2022-12-05T07:41:03;14.05;;;6.45;;
34900;SDS011;21112;51.976;5.660;2022-12-05T07:43:30;16.58;;;6.25;;
34900;SDS011;21112;51.976;5.660;2022-12-05T07:45:59;17.35;;;6.40;;
34900;SDS011;21112;51.976;5.660;2022-12-05T07:48:26;14.73;;;5.95;;
34900;SDS011;21112;51.976;5.660;2022-12-05T07:50:53;14.48;;;6.50;;
34900;SDS011;21112;51.976;5.660;2022-12-05T07:53:21;13.57;;;6.25;;
34900;SDS011;21112;51.976;5.660;2022-12-05T07:55:49;16.67;;;6.45;;
34900;SDS011;21112;51.976;5.660;2022-12-05T07:58:16;11.73;;;5.50;;
34900;SDS011;21112;51.976;5.660;2022-12-05T08:00:43;13.32;;;5.45;;
34900;SDS011;21112;51.976;5.660;2022-12-05T08:03:09;16.92;;;6.60;;
34900;SDS011;21112;51.976;5.660;2022-12-05T08:05:36;16.10;;;6.40;;
34900;SDS011;21112;51.976;5.660;2022-12-05T08:08:02;14.18;;;6.03;;
34900;SDS011;21112;51.976;5.660;2022-12-05T08:10:30;15.57;;;6.90;;
34900;SDS011;21112;51.976;5.660;2022-12-05T08:12:57;16.37;;;6.70;;
34900;SDS011;21112;51.976;5.660;2022-12-05T08:15:23;14.00;;;6.03;;
34900;SDS011;21112;51.976;5.660;2022-12-05T08:17:50;13.93;;;6.50;;
34900;SDS011;21112;51.976;5.660;2022-12-05T08:20:16;14.48;;;6.13;;
34900;SDS011;21112;51.976;5.660;2022-12-05T08:22:43;15.43;;;6.03;;
34900;SDS011;21112;51.976;5.660;2022-12-05T08:25:09;16.75;;;6.80;;
34900;SDS011;21112;51.976;5.660;2022-12-05T08:27:37;13.02;;;5.88;;
34900;SDS011;21112;51.976;5.660;2022-12-05T08:30:09;12.30;;;6.00;;
34900;SDS011;21112;51.976;5.660;2022-12-05T08:32:36;13.52;;;5.88;;
34900;SDS011;21112;51.976;5.660;2022-12-05T08:35:06;13.88;;;5.63;;
34900;SDS011;21112;51.976;5.660;2022-12-05T08:37:33;13.63;;;5.78;;
34900;SDS011;21112;51.976;5.660;2022-12-05T08:40:01;14.23;;;5.90;;
34900;SDS011;21112;51.976;5.660;2022-12-05T08:42:27;13.30;;;5.75;;
34900;SDS011;21112;51.976;5.660;2022-12-05T08:44:55;13.68;;;6.20;;
34900;SDS011;21112;51.976;5.660;2022-12-05T08:47:22;13.47;;;5.63;;
34900;SDS011;21112;51.976;5.660;2022-12-05T08:49:48;13.63;;;5.80;;
34900;SDS011;21112;51.976;5.660;2022-12-05T08:52:15;14.10;;;6.30;;
34900;SDS011;21112;51.976;5.660;2022-12-05T08:54:41;13.43;;;5.38;;
34900;SDS011;21112;51.976;5.660;2022-12-05T08:57:08;14.77;;;5.65;;
34900;SDS011;21112;51.976;5.660;2022-12-05T08:59:35;12.55;;;6.07;;
34900;SDS011;21112;51.976;5.660;2022-12-05T09:02:05;14.27;;;5.75;;
34900;SDS011;21112;51.976;5.660;2022-12-05T09:04:31;13.00;;;5.57;;
34900;SDS011;21112;51.976;5.660;2022-12-05T09:07:00;13.88;;;5.85;;
34900;SDS011;21112;51.976;5.660;2022-12-05T09:09:27;12.23;;;5.97;;
34900;SDS011;21112;51.976;5.660;2022-12-05T09:11:53;12.80;;;5.78;;
34900;SDS011;21112;51.976;5.660;2022-12-05T09:14:21;14.57;;;6.20;;
34900;SDS011;21112;51.976;5.660;2022-12-05T09:16:48;13.57;;;5.60;;
34900;SDS011;21112;51.976;5.660;2022-12-05T09:19:16;11.70;;;5.70;;
34900;SDS011;21112;51.976;5.660;2022-12-05T09:21:44;13.73;;;6.05;;
34900;SDS011;21112;51.976;5.660;2022-12-05T09:24:12;15.50;;;5.97;;
34900;SDS011;21112;51.976;5.660;2022-12-05T09:26:39;16.48;;;5.85;;
34900;SDS011;21112;51.976;5.660;2022-12-05T09:29:08;13.90;;;6.03;;
34900;SDS011;21112;51.976;5.660;2022-12-05T09:31:35;13.38;;;6.25;;
34900;SDS011;21112;51.976;5.660;2022-12-05T09:34:02;14.75;;;6.00;;
34900;SDS011;21112;51.976;5.660;2022-12-05T09:36:30;12.85;;;6.07;;
34900;SDS011;21112;51.976;5.660;2022-12-05T09:38:58;15.00;;;6.60;;
34900;SDS011;21112;51.976;5.660;2022-12-05T09:41:33;15.88;;;5.93;;
34900;SDS011;21112;51.976;5.660;2022-12-05T09:44:26;12.63;;;5.47;;
34900;SDS011;21112;51.976;5.660;2022-12-05T09:46:55;15.57;;;5.97;;
34900;SDS011;21112;51.976;5.660;2022-12-05T09:49:25;14.23;;;6.75;;
34900;SDS011;21112;51.976;5.660;2022-12-05T09:51:54;17.43;;;6.73;;
34900;SDS011;21112;51.976;5.660;2022-12-05T09:54:22;15.88;;;6.45;;
34900;SDS011;21112;51.976;5.660;2022-12-05T09:56:50;15.82;;;6.22;;
34900;SDS011;21112;51.976;5.660;2022-12-05T09:59:17;17.80;;;7.10;;
34900;SDS011;21112;51.976;5.660;2022-12-05T10:01:45;14.35;;;6.13;;
34900;SDS011;21112;51.976;5.660;2022-12-05T10:04:27;15.48;;;6.35;;
34900;SDS011;21112;51.976;5.660;2022-12-05T10:06:56;13.43;;;6.03;;
34900;SDS011;21112;51.976;5.660;2022-12-05T10:09:32;16.75;;;6.75;;
34900;SDS011;21112;51.976;5.660;2022-12-05T10:12:02;14.73;;;5.85;;
34900;SDS011;21112;51.976;5.660;2022-12-05T10:14:33;14.30;;;6.10;;
34900;SDS011;21112;51.976;5.660;2022-12-05T10:17:07;15.32;;;6.35;;
34900;SDS011;21112;51.976;5.660;2022-12-05T10:19:38;14.00;;;6.05;;
34900;SDS011;21112;51.976;5.660;2022-12-05T10:22:10;15.10;;;5.70;;
34900;SDS011;21112;51.976;5.660;2022-12-05T10:24:39;12.52;;;5.93;;
34900;SDS011;21112;51.976;5.660;2022-12-05T10:27:07;13.35;;;5.75;;
34900;SDS011;21112;51.976;5.660;2022-12-05T10:29:36;13.10;;;5.78;;
34900;SDS011;21112;51.976;5.660;2022-12-05T10:32:04;16.95;;;6.00;;
34900;SDS011;21112;51.976;5.660;2022-12-05T10:34:33;15.93;;;6.68;;
34900;SDS011;21112;51.976;5.660;2022-12-05T10:37:06;14.57;;;6.60;;
34900;SDS011;21112;51.976;5.660;2022-12-05T10:39:37;11.82;;;5.57;;
34900;SDS011;21112;51.976;5.660;2022-12-05T10:42:08;12.45;;;5.88;;
34900;SDS011;21112;51.976;5.660;2022-12-05T10:44:37;17.30;;;6.00;;
34900;SDS011;21112;51.976;5.660;2022-12-05T10:47:04;14.77;;;6.65;;
34900;SDS011;21112;51.976;5.660;2022-12-05T10:49:31;15.73;;;6.05;;
34900;SDS011;21112;51.976;5.660;2022-12-05T10:51:59;15.13;;;6.30;;
34900;SDS011;21112;51.976;5.660;2022-12-05T10:54:27;16.63;;;6.47;;
34900;SDS011;21112;51.976;5.660;2022-12-05T10:57:19;17.15;;;6.43;;
34900;SDS011;21112;51.976;5.660;2022-12-05T10:59:46;13.65;;;6.00;;
34900;SDS011;21112;51.976;5.660;2022-12-05T11:02:17;11.52;;;4.72;;
34900;SDS011;21112;51.976;5.660;2022-12-05T11:04:48;12.18;;;5.90;;
34900;SDS011;21112;51.976;5.660;2022-12-05T11:09:47;12.63;;;5.35;;
34900;SDS011;21112;51.976;5.660;2022-12-05T11:12:20;13.68;;;6.13;;
34900;SDS011;21112;51.976;5.660;2022-12-05T11:14:57;13.30;;;5.57;;
34900;SDS011;21112;51.976;5.660;2022-12-05T11:17:25;13.65;;;5.80;;
34900;SDS011;21112;51.976;5.660;2022-12-05T11:19:53;11.95;;;5.07;;
34900;SDS011;21112;51.976;5.660;2022-12-05T11:25:22;14.45;;;5.57;;
34900;SDS011;21112;51.976;5.660;2022-12-05T11:27:58;16.63;;;6.20;;
34900;SDS011;21112;51.976;5.660;2022-12-05T11:30:27;16.08;;;6.15;;
34900;SDS011;21112;51.976;5.660;2022-12-05T11:33:16;14.85;;;6.03;;
34900;SDS011;21112;51.976;5.660;2022-12-05T11:35:46;13.85;;;5.63;;
34900;SDS011;21112;51.976;5.660;2022-12-05T11:38:26;16.05;;;5.53;;
34900;SDS011;21112;51.976;5.660;2022-12-05T11:41:10;15.25;;;5.50;;
34900;SDS011;21112;51.976;5.660;2022-12-05T11:43:52;14.70;;;5.95;;
34900;SDS011;21112;51.976;5.660;2022-12-05T11:46:28;13.65;;;5.22;;
34900;SDS011;21112;51.976;5.660;2022-12-05T11:49:02;14.05;;;6.03;;
34900;SDS011;21112;51.976;5.660;2022-12-05T11:51:36;14.05;;;5.57;;
34900;SDS011;21112;51.976;5.660;2022-12-05T11:54:16;15.00;;;5.55;;
34900;SDS011;21112;51.976;5.660;2022-12-05T11:56:47;14.07;;;5.05;;
34900;SDS011;21112;51.976;5.660;2022-12-05T11:59:25;13.63;;;5.30;;
34900;SDS011;21112;51.976;5.660;2022-12-05T12:02:01;12.30;;;4.95;;
34900;SDS011;21112;51.976;5.660;2022-12-05T12:04:43;12.52;;;5.32;;
34900;SDS011;21112;51.976;5.660;2022-12-05T12:07:18;12.52;;;5.57;;
34900;SDS011;21112;51.976;5.660;2022-12-05T12:09:52;12.80;;;5.80;;
34900;SDS011;21112;51.976;5.660;2022-12-05T12:12:28;13.90;;;5.57;;
34900;SDS011;21112;51.976;5.660;2022-12-05T12:15:02;13.77;;;5.25;;
34900;SDS011;21112;51.976;5.660;2022-12-05T12:17:37;11.77;;;5.20;;
34900;SDS011;21112;51.976;5.660;2022-12-05T12:20:13;12.80;;;5.20;;
34900;SDS011;21112;51.976;5.660;2022-12-05T12:22:50;13.48;;;5.28;;
34900;SDS011;21112;51.976;5.660;2022-12-05T12:25:30;14.73;;;6.00;;
34900;SDS011;21112;51.976;5.660;2022-12-05T12:28:02;11.68;;;4.80;;
34900;SDS011;21112;51.976;5.660;2022-12-05T12:30:35;12.27;;;4.80;;
34900;SDS011;21112;51.976;5.660;2022-12-05T12:33:14;11.80;;;4.90;;
34900;SDS011;21112;51.976;5.660;2022-12-05T12:35:45;11.45;;;5.05;;
34900;SDS011;21112;51.976;5.660;2022-12-05T12:38:23;10.85;;;4.65;;
34900;SDS011;21112;51.976;5.660;2022-12-05T12:40:52;13.77;;;5.38;;
34900;SDS011;21112;51.976;5.660;2022-12-05T12:43:26;13.65;;;5.40;;
34900;SDS011;21112;51.976;5.660;2022-12-05T12:46:09;14.20;;;5.20;;
34900;SDS011;21112;51.976;5.660;2022-12-05T12:48:43;13.35;;;5.05;;
34900;SDS011;21112;51.976;5.660;2022-12-05T12:51:14;11.52;;;4.75;;
34900;SDS011;21112;51.976;5.660;2022-12-05T12:53:49;12.48;;;4.95;;
34900;SDS011;21112;51.976;5.660;2022-12-05T12:56:23;11.13;;;4.47;;
34900;SDS011;21112;51.976;5.660;2022-12-05T12:58:53;12.20;;;4.65;;
34900;SDS011;21112;51.976;5.660;2022-12-05T13:01:29;10.82;;;4.45;;
34900;SDS011;21112;51.976;5.660;2022-12-05T13:03:58;12.10;;;4.53;;
34900;SDS011;21112;51.976;5.660;2022-12-05T13:06:28;12.13;;;4.50;;
34900;SDS011;21112;51.976;5.660;2022-12-05T13:08:57;9.30;;;4.35;;
34900;SDS011;21112;51.976;5.660;2022-12-05T13:11:25;12.13;;;4.72;;
